Time;durP1;ratioP1;P1;durP2;ratioP2;P2;SDS_P1;SDS_P2;PMS_P1;PMS_P2;Temp;Humidity;BMP_temperature;BMP_pressure;BME280_temperature;BME280_humidity;BME280_pressure;Samples;Min_cycle;Max_cycle;Signal;HPM_P1;HPM_P2
2022/05/10 00:02:06;;;;;;;8.77;7.05;;;460.90;2380.80;;;;;;5072681;28;20032;-91
2022/05/10 00:04:32;;;;;;;11.85;7.43;;;460.90;2380.80;;;;;;5072430;28;20021;-91
2022/05/10 00:06:58;;;;;;;9.45;7.35;;;460.90;2380.80;;;;;;5071840;28;20108;-91
2022/05/10 00:09:29;;;;;;;11.65;7.90;;;460.90;2380.80;;;;;;5072239;28;20109;-92
2022/05/10 00:11:56;;;;;;;10.57;7.70;;;460.90;2380.80;;;;;;5072103;28;20028;-90
2022/05/10 00:14:22;;;;;;;14.13;7.40;;;460.90;2380.80;;;;;;5072063;28;20042;-90
2022/05/10 00:16:51;;;;;;;11.45;7.72;;;460.90;2380.80;;;;;;5071999;28;20028;-89
2022/05/10 00:19:18;;;;;;;13.45;8.13;;;460.90;2380.80;;;;;;5072345;28;20029;-91
2022/05/10 00:21:44;;;;;;;10.38;7.53;;;460.90;2380.80;;;;;;5071629;28;20036;-90
2022/05/10 00:24:10;;;;;;;12.65;8.38;;;460.90;2380.80;;;;;;5072312;28;20495;-90
2022/05/10 00:26:36;;;;;;;11.68;7.60;;;460.90;2380.80;;;;;;5071910;28;20040;-81
2022/05/10 00:29:02;;;;;;;12.85;8.93;;;460.90;2380.80;;;;;;5072316;28;20379;-92
2022/05/10 00:31:29;;;;;;;10.80;7.78;;;460.80;2380.80;;;;;;5071784;28;20054;-91
2022/05/10 00:33:57;;;;;;;12.05;8.50;;;460.80;2380.80;;;;;;5072164;28;20027;-90
2022/05/10 00:36:24;;;;;;;10.75;8.57;;;460.90;2380.80;;;;;;5072208;28;20071;-91
2022/05/10 00:38:50;;;;;;;10.68;7.68;;;460.80;2380.80;;;;;;5072230;28;20261;-90
2022/05/10 00:41:45;;;;;;;18.30;8.55;;;460.80;2380.80;;;;;;5073675;28;20137;-91
2022/05/10 00:44:31;;;;;;;9.43;7.40;;;460.80;2380.80;;;;;;5072532;28;20024;-91
2022/05/10 00:47:23;;;;;;;;;;;436.10;2355.20;;;;;;5077720;28;20039;-87
2022/05/10 00:50:07;;;;;;;11.55;7.40;;;436.00;2355.20;;;;;;5089688;28;19912;-84
2022/05/10 00:52:47;;;;;;;10.55;8.00;;;436.00;2355.20;;;;;;5093841;28;20040;-91
2022/05/10 00:55:32;;;;;;;9.88;7.85;;;435.90;2355.20;;;;;;5075593;28;20125;-91
2022/05/10 00:58:20;;;;;;;13.30;8.35;;;435.80;2355.20;;;;;;5075683;28;20028;-91
2022/05/10 01:00:46;;;;;;;10.52;8.18;;;435.80;2355.20;;;;;;5075190;28;20068;-89
2022/05/10 01:03:22;;;;;;;10.55;8.00;;;435.80;2355.20;;;;;;5075494;28;20055;-90
2022/05/10 01:06:18;;;;;;;10.98;8.07;;;435.80;2355.20;;;;;;5076508;28;20024;-91
2022/05/10 01:08:50;;;;;;;12.25;9.65;;;435.70;2355.20;;;;;;5075387;28;20138;-91
2022/05/10 01:11:25;;;;;;;9.75;7.93;;;435.70;2355.20;;;;;;5076472;28;20028;-91
2022/05/10 01:13:51;;;;;;;11.10;8.85;;;435.60;2355.20;;;;;;5075292;28;20028;-90
2022/05/10 01:16:20;;;;;;;14.15;9.48;;;435.60;2355.20;;;;;;5075436;28;20025;-89
2022/05/10 01:18:47;;;;;;;15.45;9.10;;;435.60;2355.20;;;;;;5075100;28;20028;-90
2022/05/10 01:21:37;;;;;;;12.50;8.43;;;435.60;2355.20;;;;;;5076343;28;20024;-81
2022/05/10 01:24:24;;;;;;;12.48;8.73;;;435.50;2355.20;;;;;;5075407;28;20020;-87
2022/05/10 01:26:53;;;;;;;13.77;9.25;;;435.50;2355.20;;;;;;5075413;28;20066;-89
2022/05/10 01:29:45;;;;;;;12.80;9.32;;;435.50;2355.20;;;;;;5075054;28;20058;-90
2022/05/10 01:35:07;;;;;;;15.48;8.07;;;435.50;2355.20;;;;;;5076976;28;20495;-91
2022/05/10 01:37:37;;;;;;;13.20;8.45;;;435.30;2355.20;;;;;;5074683;28;20047;-92
2022/05/10 01:40:33;;;;;;;12.95;8.80;;;435.20;2355.20;;;;;;5074876;28;20039;-91
2022/05/10 01:43:26;;;;;;;12.25;9.15;;;435.30;2355.20;;;;;;5072606;28;20500;-91
2022/05/10 01:46:02;;;;;;;10.20;7.28;;;435.30;2355.20;;;;;;5074877;28;20033;-92
2022/05/10 01:48:31;;;;;;;11.02;8.38;;;435.30;2355.20;;;;;;5074723;28;20028;-92
2022/05/10 01:51:06;;;;;;;12.65;8.40;;;435.30;2355.20;;;;;;5074816;28;20025;-90
2022/05/10 01:53:38;;;;;;;12.75;8.70;;;435.30;2355.20;;;;;;5074378;28;20031;-91
2022/05/10 01:56:34;;;;;;;11.85;8.18;;;435.30;2355.20;;;;;;5074648;28;20029;-90
2022/05/10 01:59:00;;;;;;;16.20;9.32;;;435.30;2355.20;;;;;;5014148;28;20088;-86
2022/05/10 02:01:34;;;;;;;12.35;8.90;;;410.10;2355.20;;;;;;4996951;28;20125;-91
2022/05/10 02:04:14;;;;;;;21.92;8.40;;;409.90;2355.20;;;;;;4997839;28;20048;-87
2022/05/10 02:07:06;;;;;;;16.27;9.90;;;409.80;2355.20;;;;;;4997628;28;20038;-87
2022/05/10 02:09:59;;;;;;;18.15;9.50;;;409.60;2355.20;;;;;;5000468;28;20375;-89
2022/05/10 02:12:24;;;;;;;11.10;8.48;;;409.70;2355.20;;;;;;4936209;29;20142;-90
2022/05/10 02:15:11;;;;;;;12.32;9.82;;;409.80;2355.20;;;;;;4935985;29;20035;-91
2022/05/10 02:17:40;;;;;;;13.90;8.52;;;410.00;2355.20;;;;;;4923494;29;20031;-91
2022/05/10 02:20:12;;;;;;;11.30;9.00;;;410.20;2355.20;;;;;;4920049;29;20032;-91
2022/05/10 02:22:47;;;;;;;15.70;9.30;;;410.30;2355.20;;;;;;4920437;29;20122;-90
2022/05/10 02:25:20;;;;;;;11.80;8.93;;;410.40;2355.20;;;;;;4920910;29;20032;-91
2022/05/10 02:27:56;;;;;;;13.50;8.88;;;410.50;2355.20;;;;;;4920080;28;20043;-90
2022/05/10 02:30:26;;;;;;;15.57;9.45;;;410.50;2355.20;;;;;;4920331;29;20038;-91
2022/05/10 02:33:07;;;;;;;14.07;8.40;;;435.20;2355.20;;;;;;4935898;29;20054;-92
2022/05/10 02:35:44;;;;;;;11.05;8.30;;;410.30;2355.20;;;;;;4953374;28;20034;-91
2022/05/10 02:38:24;;;;;;;11.77;8.60;;;410.30;2355.20;;;;;;4977635;28;20029;-83
2022/05/10 02:40:52;;;;;;;12.40;8.35;;;410.30;2355.20;;;;;;4977265;28;20491;-82
2022/05/10 02:43:28;;;;;;;12.48;8.95;;;410.40;2355.20;;;;;;4977215;28;20038;-82
2022/05/10 02:45:57;;;;;;;12.93;9.05;;;410.40;2355.20;;;;;;4977178;28;20026;-81
2022/05/10 02:48:27;;;;;;;14.98;10.15;;;410.50;2355.20;;;;;;4999663;28;20034;-83
2022/05/10 02:50:53;;;;;;;15.95;8.48;;;410.40;2355.20;;;;;;5073473;28;20556;-83
2022/05/10 02:53:19;;;;;;;11.75;8.77;;;410.30;2355.20;;;;;;5072729;28;20119;-81
2022/05/10 02:55:54;;;;;;;12.30;8.80;;;410.30;2355.20;;;;;;5072899;28;20020;-82
2022/05/10 02:58:45;;;;;;;15.48;9.63;;;410.40;2355.20;;;;;;5073278;28;20031;-81
2022/05/10 03:01:27;;;;;;;14.55;8.52;;;410.30;2355.20;;;;;;5072706;28;20044;-82
2022/05/10 03:03:53;;;;;;;12.65;8.05;;;410.30;2355.20;;;;;;5072829;28;20067;-82
2022/05/10 03:06:24;;;;;;;15.77;10.23;;;410.30;2355.20;;;;;;5072968;28;20608;-82
2022/05/10 03:08:50;;;;;;;15.98;9.88;;;410.20;2355.20;;;;;;5072290;28;20041;-82
2022/05/10 03:11:18;;;;;;;13.88;9.13;;;410.10;2355.20;;;;;;5072623;28;20407;-81
2022/05/10 03:13:45;;;;;;;12.30;9.23;;;410.10;2355.20;;;;;;5072308;28;20020;-82
2022/05/10 03:16:11;;;;;;;17.20;8.65;;;410.10;2355.20;;;;;;5072758;28;20111;-79
2022/05/10 03:18:37;;;;;;;16.15;8.88;;;410.00;2355.20;;;;;;5072634;28;20471;-82
2022/05/10 03:21:04;;;;;;;11.88;8.75;;;410.00;2355.20;;;;;;5072442;28;20115;-82
2022/05/10 03:23:30;;;;;;;13.60;9.38;;;410.00;2355.20;;;;;;5072712;28;20029;-82
2022/05/10 03:25:57;;;;;;;14.65;8.98;;;409.90;2355.20;;;;;;5072702;28;20036;-83
2022/05/10 03:28:24;;;;;;;13.23;9.27;;;409.90;2355.20;;;;;;5072500;28;20036;-82
2022/05/10 03:30:50;;;;;;;13.93;10.18;;;410.00;2355.20;;;;;;5073532;28;20480;-82
2022/05/10 03:33:17;;;;;;;12.10;9.05;;;410.00;2355.20;;;;;;5072567;28;20111;-82
2022/05/10 03:35:42;;;;;;;14.30;9.10;;;410.00;2355.20;;;;;;5073498;28;20084;-81
2022/05/10 03:38:08;;;;;;;14.73;10.13;;;410.10;2355.20;;;;;;5072395;28;20028;-81
2022/05/10 03:40:34;;;;;;;14.13;9.13;;;410.00;2355.20;;;;;;5073105;28;20028;-83
2022/05/10 03:43:01;;;;;;;19.17;13.50;;;410.10;2355.20;;;;;;5071928;28;20059;-82
2022/05/10 03:45:27;;;;;;;49.78;43.85;;;410.00;2355.20;;;;;;5072405;28;20153;-81
2022/05/10 03:47:54;;;;;;;25.48;19.95;;;410.10;2355.20;;;;;;5071995;28;20058;-82
2022/05/10 03:50:23;;;;;;;16.27;10.95;;;410.20;2355.20;;;;;;5072293;28;20021;-81
2022/05/10 03:52:49;;;;;;;15.77;9.13;;;410.10;2355.20;;;;;;5072078;28;20032;-82
2022/05/10 03:55:18;;;;;;;12.38;9.10;;;410.20;2355.20;;;;;;5073420;28;20029;-82
2022/05/10 03:57:44;;;;;;;12.88;9.23;;;410.20;2355.20;;;;;;5072191;28;20021;-82
2022/05/10 04:00:14;;;;;;;17.63;9.18;;;410.20;2355.20;;;;;;5072165;28;20417;-82
2022/05/10 04:02:40;;;;;;;14.80;10.07;;;410.00;2355.20;;;;;;5072183;28;20032;-83
2022/05/10 04:05:07;;;;;;;15.38;9.10;;;410.20;2355.20;;;;;;5072976;28;20048;-82
2022/05/10 04:07:33;;;;;;;15.13;9.45;;;410.20;2355.20;;;;;;5072214;28;20109;-82
2022/05/10 04:09:59;;;;;;;13.15;9.20;;;410.20;2355.20;;;;;;5072988;28;20032;-82
2022/05/10 04:12:25;;;;;;;14.13;9.63;;;410.10;2355.20;;;;;;5072284;28;20028;-82
2022/05/10 04:14:50;;;;;;;13.50;10.07;;;410.10;2355.20;;;;;;5071945;28;20025;-81
2022/05/10 04:17:16;;;;;;;12.77;8.85;;;410.20;2355.20;;;;;;5072074;28;20021;-81
2022/05/10 04:19:42;;;;;;;13.35;10.30;;;410.10;2355.20;;;;;;5072023;28;20033;-81
2022/05/10 04:22:09;;;;;;;16.02;9.18;;;410.20;2355.20;;;;;;5071683;28;20033;-83
2022/05/10 04:24:35;;;;;;;12.85;9.52;;;410.20;2355.20;;;;;;5074532;28;20021;-81
2022/05/10 04:27:01;;;;;;;12.75;9.30;;;410.20;2355.20;;;;;;5076143;28;20033;-81
2022/05/10 04:29:27;;;;;;;15.95;10.15;;;410.20;2355.20;;;;;;5075493;28;20055;-81
2022/05/10 04:31:53;;;;;;;14.88;10.45;;;410.20;2355.20;;;;;;5075491;28;20036;-81
2022/05/10 04:34:19;;;;;;;14.20;9.75;;;410.30;2355.20;;;;;;5075710;28;20028;-82
2022/05/10 04:36:45;;;;;;;12.75;10.32;;;410.30;2355.20;;;;;;5075056;28;20024;-78
2022/05/10 04:39:11;;;;;;;13.40;9.93;;;410.50;2355.20;;;;;;5074922;28;20024;-78
2022/05/10 04:41:42;;;;;;;13.70;9.70;;;410.50;2355.20;;;;;;5074651;28;20036;-78
2022/05/10 04:44:09;;;;;;;12.02;8.95;;;410.50;2355.20;;;;;;5074928;28;20060;-80
2022/05/10 04:46:37;;;;;;;16.65;10.20;;;435.20;2355.20;;;;;;5074643;28;20032;-78
2022/05/10 04:49:07;;;;;;;12.55;10.05;;;435.30;2355.20;;;;;;5074872;28;20028;-78
2022/05/10 04:51:34;;;;;;;15.27;9.55;;;435.30;2355.20;;;;;;5074831;28;20038;-78
2022/05/10 04:54:00;;;;;;;12.35;10.57;;;435.20;2355.20;;;;;;5074413;28;20025;-77
2022/05/10 04:56:26;;;;;;;12.18;10.10;;;435.30;2355.20;;;;;;5075758;28;20080;-78
2022/05/10 04:58:54;;;;;;;17.58;10.98;;;435.30;2355.20;;;;;;5074287;28;20020;-78
2022/05/10 05:01:22;;;;;;;15.27;10.00;;;435.30;2355.20;;;;;;5074353;28;20539;-78
2022/05/10 05:03:49;;;;;;;13.48;10.57;;;435.40;2355.20;;;;;;5074294;28;20035;-78
2022/05/10 05:06:16;;;;;;;17.30;11.32;;;435.30;2355.20;;;;;;5075779;28;20032;-78
2022/05/10 05:08:42;;;;;;;17.95;10.73;;;435.30;2355.20;;;;;;5074447;28;20054;-78
2022/05/10 05:11:08;;;;;;;13.48;11.25;;;435.40;2355.20;;;;;;5074411;28;20037;-78
2022/05/10 05:13:35;;;;;;;14.48;11.55;;;410.30;2355.20;;;;;;5074338;28;20031;-78
2022/05/10 05:16:00;;;;;;;16.15;11.20;;;435.40;2355.20;;;;;;5073794;28;20028;-78
2022/05/10 05:18:26;;;;;;;24.83;13.18;;;435.50;2355.20;;;;;;5074228;28;20040;-79
2022/05/10 05:20:52;;;;;;;15.25;11.38;;;435.40;2355.20;;;;;;5074249;28;20495;-79
2022/05/10 05:23:21;;;;;;;20.52;11.50;;;435.40;2355.20;;;;;;5074230;28;20111;-79
2022/05/10 05:25:47;;;;;;;15.25;11.98;;;435.40;2355.20;;;;;;5073949;28;20036;-78
2022/05/10 05:28:13;;;;;;;19.98;12.60;;;435.50;2355.20;;;;;;5075846;28;20036;-80
2022/05/10 05:30:42;;;;;;;19.85;11.25;;;435.50;2355.20;;;;;;5074071;28;20020;-80
2022/05/10 05:33:08;;;;;;;14.10;11.07;;;435.60;2355.20;;;;;;5074023;28;20020;-79
2022/05/10 05:35:34;;;;;;;17.08;13.05;;;435.60;2355.20;;;;;;5073324;28;20062;-79
2022/05/10 05:38:00;;;;;;;16.02;12.57;;;435.60;2355.20;;;;;;5088636;28;20395;-80
2022/05/10 05:40:26;;;;;;;16.85;12.60;;;435.70;2355.20;;;;;;5094040;28;20035;-80
2022/05/10 05:42:53;;;;;;;15.73;11.20;;;435.80;2355.20;;;;;;5093575;28;20096;-80
2022/05/10 05:45:21;;;;;;;17.52;12.10;;;435.80;2355.20;;;;;;5091291;28;20013;-79
2022/05/10 05:47:47;;;;;;;15.05;12.00;;;435.90;2355.20;;;;;;5093939;28;20039;-83
2022/05/10 05:50:16;;;;;;;16.85;13.23;;;435.90;2355.20;;;;;;5094860;28;20020;-83
2022/05/10 05:52:42;;;;;;;13.95;11.30;;;436.00;2355.20;;;;;;5094664;28;20028;-81
2022/05/10 05:55:09;;;;;;;15.80;11.95;;;436.10;2355.20;;;;;;5094515;28;20020;-79
2022/05/10 05:57:36;;;;;;;14.75;11.85;;;436.10;2355.20;;;;;;5093781;28;20031;-78
2022/05/10 06:00:05;;;;;;;20.60;12.38;;;460.80;2380.80;;;;;;5095031;28;20044;-78
2022/05/10 06:02:31;;;;;;;16.48;12.02;;;460.90;2380.80;;;;;;5095222;28;20483;-79
2022/05/10 06:04:57;;;;;;;14.50;12.13;;;461.10;2380.80;;;;;;5093089;28;20059;-79
2022/05/10 06:07:23;;;;;;;13.48;11.30;;;461.20;2380.80;;;;;;5093412;28;20388;-79
2022/05/10 06:09:48;;;;;;;16.92;11.68;;;461.20;2380.80;;;;;;5093284;28;20016;-78
2022/05/10 06:12:17;;;;;;;14.70;11.85;;;461.30;2380.80;;;;;;5093788;28;20092;-77
2022/05/10 06:14:43;;;;;;;15.68;12.27;;;461.20;2380.80;;;;;;5094524;28;20066;-77
2022/05/10 06:17:11;;;;;;;14.85;12.30;;;461.40;2380.80;;;;;;5093297;28;20068;-78
2022/05/10 06:19:39;;;;;;;14.00;11.27;;;461.40;2380.80;;;;;;5093237;28;20032;-78
2022/05/10 06:22:07;;;;;;;14.43;11.63;;;461.50;2380.80;;;;;;5095033;28;20038;-86
2022/05/10 06:24:33;;;;;;;16.58;11.98;;;461.70;2380.80;;;;;;5093550;28;20048;-79
2022/05/10 06:26:59;;;;;;;17.63;11.73;;;486.40;2380.80;;;;;;5093197;28;20058;-78
2022/05/10 06:29:25;;;;;;;14.45;10.93;;;486.50;2380.80;;;;;;5092704;28;20078;-78
2022/05/10 06:31:50;;;;;;;13.45;11.18;;;486.70;2380.80;;;;;;5092688;28;20024;-80
2022/05/10 06:34:17;;;;;;;11.40;9.98;;;486.70;2380.80;;;;;;5093389;28;20107;-79
2022/05/10 06:36:44;;;;;;;14.60;9.55;;;486.70;2380.80;;;;;;5093015;28;20028;-79
2022/05/10 06:39:10;;;;;;;11.55;9.48;;;486.80;2380.80;;;;;;5094072;28;20027;-79
2022/05/10 06:41:35;;;;;;;11.82;9.70;;;487.00;2380.80;;;;;;5092631;28;20028;-77
2022/05/10 06:44:03;;;;;;;10.68;9.05;;;487.10;2380.80;;;;;;5092857;28;20468;-78
2022/05/10 06:46:32;;;;;;;11.30;8.48;;;487.10;2380.80;;;;;;5094034;28;20032;-77
2022/05/10 06:48:58;;;;;;;22.73;9.73;;;487.30;2380.80;;;;;;5093975;28;20028;-80
2022/05/10 06:51:25;;;;;;;16.50;9.32;;;512.10;2380.80;;;;;;5092994;28;20107;-79
2022/05/10 06:53:52;;;;;;;11.60;8.82;;;512.10;2380.80;;;;;;5092779;28;20024;-80
2022/05/10 06:56:17;;;;;;;11.27;8.77;;;512.60;2380.80;;;;;;5093133;28;20056;-80
2022/05/10 06:58:44;;;;;;;10.73;8.00;;;512.60;2380.80;;;;;;5092426;28;20067;-80
2022/05/10 07:01:12;;;;;;;11.25;8.05;;;512.70;2380.80;;;;;;5093151;28;20040;-81
2022/05/10 07:03:40;;;;;;;13.48;7.78;;;512.90;2380.80;;;;;;5092683;28;20073;-82
2022/05/10 07:06:08;;;;;;;15.25;8.93;;;537.60;2406.40;;;;;;5092148;28;20040;-79
2022/05/10 07:08:35;;;;;;;15.63;8.15;;;537.70;2406.40;;;;;;5094062;28;20537;-81
2022/05/10 07:11:01;;;;;;;20.35;12.20;;;537.70;2406.40;;;;;;5092118;28;20491;-79
2022/05/10 07:13:29;;;;;;;22.02;10.65;;;537.90;2406.40;;;;;;5093900;28;20030;-79
2022/05/10 07:15:55;;;;;;;19.20;9.15;;;538.00;2406.40;;;;;;5092307;28;20070;-79
2022/05/10 07:18:21;;;;;;;20.42;9.93;;;538.00;2406.40;;;;;;5093737;28;20060;-80
2022/05/10 07:20:48;;;;;;;15.18;11.00;;;538.40;2406.40;;;;;;5088573;28;20489;-79
2022/05/10 07:23:14;;;;;;;14.68;8.77;;;538.40;2406.40;;;;;;5089207;28;20024;-79
2022/05/10 07:25:40;;;;;;;13.93;8.90;;;538.50;2406.40;;;;;;5093188;28;20095;-80
2022/05/10 07:28:06;;;;;;;13.32;9.68;;;563.30;2432.00;;;;;;5093565;28;20107;-78
2022/05/10 07:30:34;;;;;;;15.73;8.77;;;563.40;2432.00;;;;;;5091518;28;20089;-79
2022/05/10 07:33:00;;;;;;;13.65;9.32;;;563.40;2432.00;;;;;;5074318;28;20031;-79
2022/05/10 07:38:14;;;;;;;9.93;5.83;;;563.60;2380.80;;;;;;5091371;28;20490;-79
2022/05/10 07:40:40;;;;;;;12.63;8.75;;;563.60;2304.00;;;;;;5091100;28;20084;-79
2022/05/10 07:43:07;;;;;;;14.18;6.88;;;563.70;2304.00;;;;;;5090816;28;20036;-81
2022/05/10 07:45:34;;;;;;;13.50;7.20;;;563.90;2304.00;;;;;;5090847;28;20020;-80
2022/05/10 07:48:00;;;;;;;18.40;9.07;;;564.00;2329.60;;;;;;5091658;28;20051;-81
2022/05/10 07:50:26;;;;;;;13.27;6.38;;;564.10;2252.80;;;;;;5091135;28;20477;-80
2022/05/10 07:52:51;;;;;;;16.98;6.32;;;588.80;2073.60;;;;;;5091320;28;20039;-80
2022/05/10 07:55:18;;;;;;;14.02;6.43;;;588.80;2150.40;;;;;;5091349;28;20103;-80
2022/05/10 07:57:43;;;;;;;8.35;6.03;;;588.90;2150.40;;;;;;5091747;28;20430;-81
2022/05/10 08:00:13;;;;;;;10.20;6.53;;;589.00;2073.60;;;;;;5090189;28;20051;-81
2022/05/10 08:02:43;;;;;;;13.50;6.28;;;589.10;2124.80;;;;;;5091849;28;20032;-80
2022/05/10 08:05:16;;;;;;;20.63;8.10;;;589.10;2124.80;;;;;;5091718;28;20020;-80
2022/05/10 08:07:42;;;;;;;13.02;6.60;;;589.20;2022.40;;;;;;5091821;28;20123;-81
2022/05/10 08:10:08;;;;;;;13.23;4.95;;;589.20;2150.40;;;;;;5091393;28;20579;-79
2022/05/10 08:12:33;;;;;;;10.95;5.75;;;589.30;2048.00;;;;;;5091093;28;20035;-78
2022/05/10 08:14:59;;;;;;;12.23;5.88;;;589.30;2073.60;;;;;;5091291;28;20020;-79
2022/05/10 08:17:25;;;;;;;13.90;5.05;;;589.40;2022.40;;;;;;5092789;28;20450;-85
2022/05/10 08:19:51;;;;;;;9.70;5.75;;;589.50;2073.60;;;;;;5092011;28;20086;-82
2022/05/10 08:22:17;;;;;;;8.50;4.75;;;589.60;2073.60;;;;;;5092429;28;20024;-86
2022/05/10 08:24:43;;;;;;;10.00;5.22;;;589.60;2022.40;;;;;;5092924;28;20380;-85
2022/05/10 08:27:09;;;;;;;6.40;4.40;;;589.60;2048.00;;;;;;5091663;28;20036;-86
2022/05/10 08:29:34;;;;;;;9.88;4.60;;;589.70;1920.00;;;;;;5091950;28;20028;-83
2022/05/10 08:32:00;;;;;;;7.43;5.03;;;589.70;2022.40;;;;;;5092286;28;20460;-90
2022/05/10 08:34:27;;;;;;;5.97;4.55;;;614.40;2124.80;;;;;;5092249;28;20024;-83
2022/05/10 08:36:54;;;;;;;17.30;9.60;;;614.40;2099.20;;;;;;5092102;28;20024;-85
2022/05/10 08:39:19;;;;;;;7.80;6.25;;;614.40;2150.40;;;;;;5092083;28;20064;-89
2022/05/10 08:41:52;;;;;;;10.10;4.13;;;614.50;2150.40;;;;;;5091888;28;20040;-88
2022/05/10 08:44:25;;;;;;;8.23;5.43;;;614.50;2073.60;;;;;;5092225;28;20381;-86
2022/05/10 08:47:06;;;;;;;6.70;4.57;;;614.50;1894.40;;;;;;5091803;28;20500;-82
2022/05/10 08:49:46;;;;;;;8.38;4.70;;;614.50;1971.20;;;;;;5091825;28;20031;-89
2022/05/10 08:52:16;;;;;;;11.25;5.78;;;614.60;2022.40;;;;;;5091607;28;20119;-88
2022/05/10 08:54:42;;;;;;;7.78;5.50;;;614.60;2099.20;;;;;;5092005;28;20024;-87
2022/05/10 08:57:24;;;;;;;8.77;7.65;;;614.70;2201.60;;;;;;5091396;28;20020;-88
2022/05/10 09:00:03;;;;;;;11.55;7.45;;;614.80;2278.40;;;;;;5092090;28;20060;-87
2022/05/10 09:02:48;;;;;;;15.60;5.85;;;614.80;2048.00;;;;;;5092305;28;20020;-88
2022/05/10 09:05:38;;;;;;;7.93;3.92;;;614.80;1971.20;;;;;;5092155;28;20106;-87
2022/05/10 09:08:25;;;;;;;4.97;3.83;;;614.70;1843.20;;;;;;5091846;28;20028;-86
2022/05/10 09:10:56;;;;;;;7.03;4.05;;;614.70;1817.60;;;;;;5091971;28;20036;-86
2022/05/10 09:13:23;;;;;;;6.05;3.58;;;614.80;1894.40;;;;;;5096975;28;20106;-85
2022/05/10 09:15:57;;;;;;;8.38;4.03;;;614.80;1894.40;;;;;;5095496;28;20016;-85
2022/05/10 09:18:29;;;;;;;7.97;4.57;;;614.80;1766.40;;;;;;5095471;28;20024;-81
2022/05/10 09:21:16;;;;;;;7.43;4.72;;;614.70;1920.00;;;;;;5095575;28;20429;-85
2022/05/10 09:24:19;;;;;;;6.40;4.10;;;614.80;1971.20;;;;;;5095702;28;20031;-83
2022/05/10 09:26:51;;;;;;;6.97;4.95;;;614.80;1894.40;;;;;;5095242;28;20127;-87
2022/05/10 09:29:26;;;;;;;11.20;4.20;;;614.90;1894.40;;;;;;5095294;28;20051;-86
2022/05/10 09:34:46;;;;;;;6.03;4.47;;;615.20;1792.00;;;;;;5096779;28;20376;-84
2022/05/10 09:37:32;;;;;;;;;;;614.90;1894.40;;;;;;5095808;28;20384;-84
2022/05/10 09:40:01;;;;;;;6.05;3.78;;;640.00;1792.00;;;;;;5095041;28;20627;-87
2022/05/10 09:42:33;;;;;;;6.70;3.72;;;640.00;1740.80;;;;;;5094241;28;20499;-86
2022/05/10 09:45:04;;;;;;;4.85;4.18;;;640.10;1894.40;;;;;;5095253;28;20032;-84
2022/05/10 09:47:31;;;;;;;5.93;3.78;;;640.20;1689.60;;;;;;5094431;28;20036;-85
2022/05/10 09:50:14;;;;;;;11.45;5.00;;;640.40;1689.60;;;;;;5094355;28;20016;-81
2022/05/10 09:52:40;;;;;;;9.35;3.90;;;640.50;1740.80;;;;;;5092983;28;20066;-79
2022/05/10 09:55:09;;;;;;;7.50;4.03;;;640.60;1740.80;;;;;;5093886;28;20020;-83
2022/05/10 09:57:39;;;;;;;7.63;5.13;;;640.90;1689.60;;;;;;5094978;28;20024;-84
2022/05/10 10:00:11;;;;;;;6.65;5.25;;;665.60;1766.40;;;;;;5093079;28;20036;-83
2022/05/10 10:02:39;;;;;;;9.55;5.45;;;665.90;1792.00;;;;;;5092358;28;20063;-86
2022/05/10 10:05:23;;;;;;;8.50;4.55;;;665.90;1740.80;;;;;;5090967;28;20036;-83
2022/05/10 10:07:54;;;;;;;5.90;4.35;;;640.90;1740.80;;;;;;5094567;28;20516;-80
2022/05/10 10:10:46;;;;;;;7.85;5.00;;;665.90;1715.20;;;;;;5094907;28;20087;-84
2022/05/10 10:13:32;;;;;;;7.82;4.10;;;666.20;1817.60;;;;;;5090234;28;20067;-82
2022/05/10 10:15:58;;;;;;;;;;;666.50;1689.60;;;;;;5074096;28;20033;-81
2022/05/10 10:18:44;;;;;;;6.43;4.90;;;666.50;1638.40;;;;;;5073460;28;19911;-81
2022/05/10 10:21:14;;;;;;;8.65;4.45;;;666.50;1689.60;;;;;;5073566;28;20035;-82
2022/05/10 10:23:48;;;;;;;5.50;4.72;;;666.40;1638.40;;;;;;5073077;28;20031;-83
2022/05/10 10:26:16;;;;;;;13.15;4.40;;;666.50;1587.20;;;;;;5078597;28;20036;-85
2022/05/10 10:29:08;;;;;;;14.43;5.70;;;691.20;1664.00;;;;;;5095089;28;20020;-80
2022/05/10 10:31:40;;;;;;;7.47;5.20;;;666.50;1664.00;;;;;;5093241;28;20430;-80
2022/05/10 10:34:45;;;;;;;8.18;4.93;;;666.50;1536.00;;;;;;5094434;28;20090;-81
2022/05/10 10:37:26;;;;;;;10.30;6.45;;;666.50;1561.60;;;;;;5092523;28;20067;-79
2022/05/10 10:40:17;;;;;;;6.85;4.65;;;666.30;1459.20;;;;;;5093229;28;20478;-79
2022/05/10 10:42:52;;;;;;;7.47;4.50;;;691.20;1536.00;;;;;;5093785;28;20020;-80
2022/05/10 10:45:23;;;;;;;12.73;5.30;;;691.40;1587.20;;;;;;5092473;28;20027;-80
2022/05/10 10:48:34;;;;;;;7.05;4.68;;;691.40;1484.80;;;;;;5094069;28;20506;-79
2022/05/10 10:51:00;;;;;;;6.72;4.07;;;691.20;1484.80;;;;;;5015199;28;20116;-79
2022/05/10 10:53:28;;;;;;;8.27;3.92;;;691.20;1459.20;;;;;;5031497;28;20044;-80
2022/05/10 10:56:29;;;;;;;6.30;4.18;;;666.50;1510.40;;;;;;5031871;28;20086;-79
2022/05/10 10:59:36;;;;;;;6.60;4.18;;;665.90;1433.60;;;;;;5015258;28;20086;-80
2022/05/10 11:02:25;;;;;;;6.15;4.18;;;665.60;1664.00;;;;;;4972731;28;20542;-79
2022/05/10 11:05:28;;;;;;;8.43;3.75;;;640.60;1510.40;;;;;;4973133;28;20065;-80
2022/05/10 11:08:20;;;;;;;8.25;4.28;;;640.30;1587.20;;;;;;4972577;28;20042;-80
2022/05/10 11:11:01;;;;;;;12.30;10.10;;;640.40;1664.00;;;;;;4972647;28;20460;-80
2022/05/10 11:13:49;;;;;;;9.30;4.72;;;640.50;1561.60;;;;;;4972568;28;20035;-80
2022/05/10 11:16:37;;;;;;;9.50;5.18;;;640.50;1561.60;;;;;;4965058;28;20074;-80
2022/05/10 11:19:27;;;;;;;10.90;3.85;;;640.50;1561.60;;;;;;4972616;28;20043;-80
2022/05/10 11:22:14;;;;;;;8.45;3.50;;;640.20;1536.00;;;;;;4969006;28;20543;-79
2022/05/10 11:24:49;;;;;;;7.97;3.85;;;640.00;1561.60;;;;;;4972315;28;20031;-80
2022/05/10 11:27:50;;;;;;;20.50;4.10;;;615.30;1561.60;;;;;;4993056;28;20068;-81
2022/05/10 11:30:42;;;;;;;11.73;3.97;;;615.20;1587.20;;;;;;4972422;28;20511;-80
2022/05/10 11:33:22;;;;;;;8.95;4.05;;;614.80;1587.20;;;;;;4917659;29;20040;-80
2022/05/10 11:36:21;;;;;;;8.23;3.72;;;614.80;1638.40;;;;;;4933570;29;20503;-79
2022/05/10 11:39:14;;;;;;;7.45;4.13;;;614.70;1664.00;;;;;;4948515;28;20039;-79
2022/05/10 11:41:48;;;;;;;10.80;4.75;;;614.70;1664.00;;;;;;4955838;28;20043;-79
2022/05/10 11:44:29;;;;;;;6.93;4.45;;;614.60;1689.60;;;;;;4967802;28;20122;-79
2022/05/10 11:47:01;;;;;;;10.82;4.88;;;614.50;1843.20;;;;;;4972209;28;20042;-81
2022/05/10 11:49:47;;;;;;;9.57;5.35;;;614.50;2022.40;;;;;;4956200;28;20435;-80
2022/05/10 11:52:44;;;;;;;8.98;5.45;;;589.70;2150.40;;;;;;4972151;28;20023;-80
2022/05/10 11:55:24;;;;;;;15.70;5.75;;;589.60;2176.00;;;;;;4971984;28;20038;-80
2022/05/10 11:57:59;;;;;;;9.07;5.72;;;589.40;2252.80;;;;;;4971758;28;20187;-79
2022/05/10 12:00:27;;;;;;;10.48;5.45;;;589.50;2150.40;;;;;;4971668;28;20039;-79
2022/05/10 12:02:54;;;;;;;12.15;5.43;;;589.70;2201.60;;;;;;4955670;28;20034;-80
2022/05/10 12:05:29;;;;;;;13.05;5.78;;;589.70;2150.40;;;;;;4971955;28;20030;-80
2022/05/10 12:08:01;;;;;;;12.98;5.88;;;589.70;2124.80;;;;;;4994582;28;20044;-80
2022/05/10 12:10:37;;;;;;;12.07;5.50;;;589.70;2227.20;;;;;;5061760;28;20036;-80
2022/05/10 12:21:19;;;;;;;7.32;5.97;;;589.70;2355.20;;;;;;5091499;28;20078;-81
2022/05/10 12:23:04;;;;;;;11.80;6.60;;;589.60;2432.00;;;;;;5092800;28;20095;-79
2022/05/10 12:25:52;;;;;;;7.38;5.55;;;589.60;2432.00;;;;;;5088543;28;20032;-79
2022/05/10 12:28:57;;;;;;;9.70;5.70;;;589.50;2432.00;;;;;;5092668;28;20069;-80
2022/05/10 12:31:32;;;;;;;8.90;6.55;;;589.40;2432.00;;;;;;5090567;28;20028;-80
2022/05/10 12:34:10;;;;;;;11.88;5.78;;;589.30;2432.00;;;;;;5092305;28;20099;-79
2022/05/10 12:36:41;;;;;;;10.50;6.63;;;589.10;2432.00;;;;;;5092891;28;20024;-80
2022/05/10 12:39:21;;;;;;;11.10;6.72;;;589.10;2432.00;;;;;;5091684;28;20103;-79
2022/05/10 12:41:52;;;;;;;8.68;6.60;;;589.00;2432.00;;;;;;5087600;28;20036;-79
2022/05/10 12:44:42;;;;;;;8.40;6.50;;;589.00;2432.00;;;;;;5089006;28;20024;-79
2022/05/10 12:47:14;;;;;;;8.95;6.07;;;589.00;2432.00;;;;;;5095748;28;20032;-79
2022/05/10 12:50:08;;;;;;;12.18;7.43;;;589.00;2432.00;;;;;;5094405;28;20417;-79
2022/05/10 12:52:47;;;;;;;11.95;7.05;;;589.10;2432.00;;;;;;5092283;28;20035;-79